D/T METAR WX W/DIR W/SPE G/SPE TEMP DEWP
19/03/19 02:50 EGXW 190250Z 22006KT 6000 BR SCT015 BKN035 07/06 Q1023 WHT BR SW (220°) 6.9mph 7°C 6°C
19/03/19 01:50 EGXW 190150Z 22007KT 5000 -RA FEW006 SCT024 BKN032 07/06 Q1023 WHT -RA SW (220°) 8.1mph 7°C 6°C
19/03/19 00:50 EGXW 190050Z 21005KT 5000 -RADZ BKN010 BKN020 07/06 Q1023 GRN -RA -DZ SSW (210°) 5.8mph 7°C 6°C
18/03/19 23:50 EGXW 182350Z 22005KT 9999 FEW016 BKN020 BKN030 07/06 Q1023 WHT SW (220°) 5.8mph 7°C 6°C
18/03/19 22:50 EGXW 182250Z 22005KT 9999 BKN035 07/05 Q1022 BLU SW (220°) 5.8mph 7°C 5°C
18/03/19 21:50 EGXW 182150Z 22005KT 9999 BKN027 BKN032 07/05 Q1022 BLU SW (220°) 5.8mph 7°C 5°C
18/03/19 20:50 EGXW 182050Z 22006KT 9999 SCT032 BKN040 08/05 Q1022 BLU SW (220°) 6.9mph 8°C 5°C
18/03/19 19:50 EGXW 181950Z 22005KT 9999 BKN030 08/04 Q1022 BLU SW (220°) 5.8mph 8°C 4°C
18/03/19 18:50 EGXW 181850Z 24003KT 9999 FEW030 BKN042 09/04 Q1021 BLU NOSIG WSW (240°) 3.5mph 9°C 4°C
18/03/19 17:50 EGXW 181750Z 27005KT 9999 FEW030 BKN045 09/04 Q1021 BLU NOSIG W (270°) 5.8mph 9°C 4°C
18/03/19 16:50 EGXW 181650Z 26008KT 9999 FEW030 SCT045 09/03 Q1020 BLU NOSIG W (260°) 9.2mph 9°C 3°C
18/03/19 15:50 EGXW 181550Z 27010KT 9999 FEW027TCU SCT030 10/03 Q1019 BLU NOSIG W (270°) 11.5mph 10°C 3°C
18/03/19 14:50 EGXW 181450Z 27009KT 9999 VCSH FEW027TCU SCT031 10/03 Q1019 BLU TEMPO 7000 SHRA SCT024TCU WHT VCSH W (270°) 10.4mph 10°C 3°C
18/03/19 13:50 EGXW 181350Z 26011KT 9999 VCSH FEW027TCU 10/02 Q1019 BLU TEMPO 7000 SHRA SCT024TCU WHT VCSH W (260°) 12.7mph 10°C 2°C
18/03/19 12:50 EGXW 181250Z 26012KT 9999 VCSH FEW025TCU SCT028 10/03 Q1019 BLU TEMPO 7000 SHRA SCT024TCU WHT VCSH W (260°) 13.8mph 10°C 3°C
18/03/19 11:50 EGXW 181150Z 30008KT 9999 SCT027 09/02 Q1019 BLU TEMPO 7000 SHRA SCT024TCU WHT WNW (300°) 9.2mph 9°C 2°C
18/03/19 10:50 EGXW 181050Z 29008KT 9999 SCT028 BKN250 09/02 Q1018 BLU TEMPO 7000 SHRA SCT024TCU WHT WNW (290°) 9.2mph 9°C 2°C
18/03/19 09:50 EGXW 180950Z 26007KT 9999 FEW018 SCT250 08/04 Q1018 BLU TEMPO SCT020 WHT W (260°) 8.1mph 8°C 4°C
18/03/19 08:50 EGXW 180850Z 26006KT 9999 FEW030 BKN250 06/04 Q1018 BLU NOSIG W (260°) 6.9mph 6°C 4°C
18/03/19 07:50 EGXW 180750Z 24004KT 9999 FEW027 SCT180 BKN250 05/02 Q1017 BLU NOSIG WSW (240°) 4.6mph 5°C 2°C
18/03/19 06:50 EGXW 180650Z 28004KT 9999 FEW040 BKN050 BKN250 04/02 Q1017 BLU NOSIG W (280°) 4.6mph 4°C 2°C
18/03/19 05:50 EGXW 180550Z 26003KT CAVOK 03/01 Q1016 BLU W (260°) 3.5mph 3°C 1°C
18/03/19 04:50 EGXW 180450Z 30005KT CAVOK 04/01 Q1015 BLU WNW (300°) 5.8mph 4°C 1°C
18/03/19 03:50 EGXW 180350Z 29006KT 9999 FEW035 BKN220 05/02 Q1015 BLU WNW (290°) 6.9mph 5°C 2°C
18/03/19 02:50 EGXW 180250Z AUTO 28003KT 9999 FEW060/// 04/02 Q1014 W (280°) 3.5mph 4°C 2°C
18/03/19 01:50 EGXW 180150Z AUTO 30005KT 9999 SCT060/// 04/02 Q1014 WNW (300°) 5.8mph 4°C 2°C
18/03/19 00:50 EGXW 180050Z AUTO 31006KT 9999 BKN060/// 04/02 Q1013 NW (310°) 6.9mph 4°C 2°C
17/03/19 23:50 EGXW 172350Z AUTO 29004KT 9999 NCD 05/02 Q1012 WNW (290°) 4.6mph 5°C 2°C
17/03/19 22:50 EGXW 172250Z AUTO 30006KT 9999 FEW038/// 05/02 Q1012 WNW (300°) 6.9mph 5°C 2°C
17/03/19 21:50 EGXW 172150Z AUTO 28007KT 9999 SCT060/// 05/02 Q1011 W (280°) 8.1mph 5°C 2°C
17/03/19 20:50 EGXW 172050Z AUTO 27005KT 9999 FEW060/// 05/02 Q1009 W (270°) 5.8mph 5°C 2°C
17/03/19 19:50 EGXW 171950Z AUTO 24006KT 9999 SCT035/// 05/02 Q1008 WSW (240°) 6.9mph 5°C 2°C
17/03/19 18:50 EGXW 171850Z AUTO 26007KT 9999 SCT043/// 06/02 Q1007 W (260°) 8.1mph 6°C 2°C
17/03/19 17:50 EGXW 171750Z AUTO 27011KT 9999 FEW034/// SCT042/// 07/01 Q1006 W (270°) 12.7mph 7°C 1°C
17/03/19 16:50 EGXW 171650Z AUTO 27016KT 9999 FEW039/// 08/00 Q1005 W (270°) 18.4mph 8°C 0°C
17/03/19 15:50 EGXW 171550Z AUTO 28016KT 9999 SCT047/// 09/M00 Q1004 W (280°) 18.4mph 9°C 0°C
17/03/19 14:50 EGXW 171450Z AUTO 28017KT 9999 FEW034/// 08/00 Q1003 W (280°) 19.6mph 8°C 0°C
17/03/19 13:50 EGXW 171350Z AUTO 28013KT 9999 FEW038/// BKN050/// 08/M00 Q1002 RERA W (280°) 15.0mph 8°C 0°C
17/03/19 12:50 EGXW 171250Z AUTO 28020KT 9999 -RADZ FEW030/// SCT060/// 07/00 Q1002 -RA -DZ W (280°) 23.0mph 7°C 0°C
17/03/19 11:50 EGXW 171150Z AUTO 27019KT 9999 SCT027/// 07/00 Q1001 W (270°) 21.9mph 7°C 0°C
17/03/19 10:50 EGXW 171050Z AUTO 27016KT 9999 BKN030/// 06/00 Q1001 W (270°) 18.4mph 6°C 0°C
17/03/19 09:50 EGXW 170950Z AUTO 28015KT 9999 FEW020/// SCT023/// 05/01 Q1000 W (280°) 17.3mph 5°C 1°C
17/03/19 08:50 EGXW 170850Z AUTO 26011KT 9999 FEW021/// 05/01 Q0999 W (260°) 12.7mph 5°C 1°C
17/03/19 07:50 EGXW 170750Z AUTO 26012KT 9999 FEW021/// 04/01 Q0998 W (260°) 13.8mph 4°C 1°C
17/03/19 06:50 EGXW 170650Z AUTO 25014KT 9999 NCD 03/01 Q0997 WSW (250°) 16.1mph 3°C 1°C
17/03/19 05:50 EGXW 170550Z AUTO 25012KT 9999 SCT150/// 03/01 Q0996 WSW (250°) 13.8mph 3°C 1°C
17/03/19 04:50 EGXW 170450Z AUTO 25011KT 9999 SCT033/// SCT160/// 03/02 Q0996 WSW (250°) 12.7mph 3°C 2°C
17/03/19 03:50 EGXW 170350Z AUTO 26010KT 9999 FEW028/// BKN130/// 04/02 Q0995 W (260°) 11.5mph 4°C 2°C
17/03/19 02:50 EGXW 170250Z AUTO 25009KT 9999 BKN120/// 04/02 Q0994 WSW (250°) 10.4mph 4°C 2°C
17/03/19 01:50 EGXW 170150Z AUTO 26006KT 9999 FEW027/// SCT120/// 04/02 Q0994 W (260°) 6.9mph 4°C 2°C
17/03/19 00:50 EGXW 170050Z AUTO 27008KT 9999 BKN090/// 04/02 Q0993 W (270°) 9.2mph 4°C 2°C
16/03/19 23:50 EGXW 162350Z AUTO 25009KT 9999 FEW110/// 05/02 Q0993 WSW (250°) 10.4mph 5°C 2°C
16/03/19 22:50 EGXW 162250Z AUTO 25010KT 9999 FEW130/// SCT240/// 05/02 Q0992 WSW (250°) 11.5mph 5°C 2°C
16/03/19 21:50 EGXW 162150Z AUTO 26010KT 9999 OVC080/// 06/02 Q0992 W (260°) 11.5mph 6°C 2°C
16/03/19 20:50 EGXW 162050Z AUTO 27013KT 9999 BKN050/// 07/04 Q0991 RERA W (270°) 15.0mph 7°C 4°C
16/03/19 19:50 EGXW 161950Z AUTO 27019G30KT 9999 -RA FEW011/// BKN029/// 07/05 Q0990 -RA W (270°) 21.9mph 34.5mph 7°C 5°C
16/03/19 18:50 EGXW 161850Z AUTO 22024G39KT 9999 -RA FEW016/// BKN023/// 10/08 Q0988 -RA SW (220°) 27.6mph 44.9mph 10°C 8°C
16/03/19 17:50 EGXW 161750Z AUTO 22026KT 9999 -RA FEW018/// SCT023/// BKN030/// 10/08 Q0989 -RA SW (220°) 29.9mph 10°C 8°C
16/03/19 16:50 EGXW 161650Z AUTO 21027KT 9999 -RA FEW020/// BKN044/// 11/08 Q0989 -RA SSW (210°) 31.1mph 11°C 8°C
16/03/19 15:50 EGXW 161550Z AUTO 22026G38KT 9999 BKN021/// 11/07 Q0991 SW (220°) 29.9mph 43.7mph 11°C 7°C
16/03/19 14:50 EGXW 161450Z AUTO 22025G36KT 9999 BKN024/// BKN032/// 12/07 Q0991 SW (220°) 28.8mph 41.4mph 12°C 7°C
16/03/19 13:50 EGXW 161350Z AUTO 22026G36KT 9999 BKN021/// 12/07 Q0992 SW (220°) 29.9mph 41.4mph 12°C 7°C
16/03/19 12:50 EGXW 161250Z AUTO 23025G36KT 9999 BKN022/// 11/07 Q0993 SW (230°) 28.8mph 41.4mph 11°C 7°C
16/03/19 11:50 EGXW 161150Z AUTO 23023G36KT 9999 OVC021/// 11/07 Q0994 SW (230°) 26.5mph 41.4mph 11°C 7°C
16/03/19 10:50 EGXW 161050Z AUTO 22018G28KT 9999 BKN023/// 11/07 Q0995 SW (220°) 20.7mph 32.2mph 11°C 7°C
16/03/19 09:50 EGXW 160950Z AUTO 22021G31KT 9999 OVC021/// 11/08 Q0996 SW (220°) 24.2mph 35.7mph 11°C 8°C
16/03/19 08:50 EGXW 160850Z AUTO 22021KT 9999 OVC019/// 11/08 Q0996 SW (220°) 24.2mph 11°C 8°C
16/03/19 07:50 EGXW 160750Z AUTO 22022KT 9999 BKN020/// 10/08 Q0996 SW (220°) 25.3mph 10°C 8°C
16/03/19 06:50 EGXW 160650Z AUTO 22020KT 9999 BKN024/// 10/08 Q0997 RERA SW (220°) 23.0mph 10°C 8°C
16/03/19 05:50 EGXW 160550Z AUTO 22020KT 9999 FEW017/// BKN024/// 10/09 Q0998 RERA SW (220°) 23.0mph 10°C 9°C
16/03/19 04:50 EGXW 160450Z AUTO 22013KT 9999 -RADZ FEW003/// BKN007/// 09/09 Q0999 -RA -DZ SW (220°) 15.0mph 9°C 9°C
16/03/19 03:50 EGXW 160350Z AUTO 15008KT 3900 RA BKN002/// 07/07 Q1001 RA SSE (150°) 9.2mph 7°C 7°C
16/03/19 02:50 EGXW 160250Z AUTO 15008KT 6000 RA FEW015/// SCT021/// BKN030/// 06/06 Q1002 RA SSE (150°) 9.2mph 6°C 6°C
16/03/19 01:50 EGXW 160150Z AUTO 20008KT 9999 -RA FEW027/// BKN031/// 07/05 Q1004 -RA SSW (200°) 9.2mph 7°C 5°C
16/03/19 00:50 EGXW 160050Z AUTO 21008KT 9999 -RA FEW033/// BKN045/// 07/05 Q1006 -RA SSW (210°) 9.2mph 7°C 5°C
15/03/19 23:50 EGXW 152350Z AUTO 22007KT 9999 -RA OVC060/// 07/04 Q1006 -RA SW (220°) 8.1mph 7°C 4°C
15/03/19 22:50 EGXW 152250Z AUTO 23008KT 9999 OVC070/// 07/03 Q1007 SW (230°) 9.2mph 7°C 3°C
15/03/19 21:50 EGXW 152150Z AUTO 24007KT 9999 BKN090/// 07/01 Q1007 WSW (240°) 8.1mph 7°C 1°C
15/03/19 20:50 EGXW 152050Z AUTO 25004KT 9999 OVC150/// 07/01 Q1007 WSW (250°) 4.6mph 7°C 1°C
15/03/19 19:50 EGXW 151950Z AUTO 25007KT 9999 BKN180/// 08/01 Q1006 WSW (250°) 8.1mph 8°C 1°C
15/03/19 18:50 EGXW 151850Z AUTO 28013KT 9999 NCD 09/01 Q1006 W (280°) 15.0mph 9°C 1°C
15/03/19 17:50 EGXW 151750Z AUTO 27017KT 9999 FEW050/// 09/01 Q1005 W (270°) 19.6mph 9°C 1°C
15/03/19 16:50 EGXW 151650Z 28019G31KT 9999 FEW042 BKN250 10/01 Q1004 BLU NOSIG W (280°) 21.9mph 35.7mph 10°C 1°C
15/03/19 15:50 EGXW 151550Z 27021G33KT 9999 FEW042 BKN050 11/02 Q1004 BLU NOSIG W (270°) 24.2mph 38.0mph 11°C 2°C
15/03/19 14:50 EGXW 151450Z 27020G30KT 9999 BKN046 11/02 Q1003 BLU NOSIG W (270°) 23.0mph 34.5mph 11°C 2°C
15/03/19 13:50 EGXW 151350Z 28022G33KT 9999 FEW041 BKN250 11/02 Q1002 BLU NOSIG W (280°) 25.3mph 38.0mph 11°C 2°C
15/03/19 12:50 EGXW 151250Z 28022KT 9999 FEW039 BKN200 11/02 Q1002 BLU NOSIG W (280°) 25.3mph 11°C 2°C
15/03/19 11:50 EGXW 151150Z 28024G36KT 9999 SCT036 SCT130 BKN200 11/03 Q1002 BLU NOSIG W (280°) 27.6mph 41.4mph 11°C 3°C
15/03/19 10:50 EGXW 151050Z 28023G33KT 9999 SCT035 BKN180 11/04 Q1001 BLU NOSIG W (280°) 26.5mph 38.0mph 11°C 4°C
15/03/19 09:50 EGXW 150950Z 27019G31KT 9999 SCT036 SCT150 BKN180 13/05 Q1000 BLU NOSIG W (270°) 21.9mph 35.7mph 13°C 5°C
15/03/19 08:50 EGXW 150850Z 27022G36KT 9999 FEW032 SCT090 BKN180 12/05 Q1000 BLU NOSIG W (270°) 25.3mph 41.4mph 12°C 5°C
15/03/19 07:50 EGXW 150750Z 27017KT 9999 FEW023 BKN028 BKN250 11/08 Q0999 BLU BECMG 28022G35KT BLU W (270°) 19.6mph 11°C 8°C
15/03/19 06:50 EGXW 150650Z 26012KT 9999 BKN023 BKN029 11/09 Q0998 WHT BECMG SCT030 BLU W (260°) 13.8mph 11°C 9°C
15/03/19 05:50 EGXW 150550Z 25015KT 9999 BKN024 11/09 Q0998 WHT WSW (250°) 17.3mph 11°C 9°C
15/03/19 04:50 EGXW 150450Z 24013KT 9999 FEW012 BKN023 10/09 Q0998 WHT WSW (240°) 15.0mph 10°C 9°C
15/03/19 03:50 EGXW 150350Z 22015KT 9999 SCT028 SCT070 BKN100 09/09 Q0998 BLU SW (220°) 17.3mph 9°C 9°C
15/03/19 02:50 EGXW 150250Z 21016KT 9999 SCT005 BKN020 08/07 Q0999 YLO1 SSW (210°) 18.4mph 8°C 7°C
15/03/19 01:50 EGXW 150150Z 22012KT 9999 -RADZ FEW005 BKN025 07/06 Q1001 BLU -RA -DZ SW (220°) 13.8mph 7°C 6°C
15/03/19 00:50 EGXW 150050Z AUTO 22012KT 9999 -RA BKN038/// 08/04 Q1002 -RA SW (220°) 13.8mph 8°C 4°C
14/03/19 23:50 EGXW 142350Z AUTO 22011KT 9999 FEW037/// BKN070/// 08/04 Q1003 SW (220°) 12.7mph 8°C 4°C
14/03/19 22:50 EGXW 142250Z 21009KT 9999 BKN035 BKN140 08/04 Q1004 BLU SSW (210°) 10.4mph 8°C 4°C
14/03/19 21:50 EGXW 142150Z 23007KT CAVOK 08/04 Q1004 BLU SW (230°) 8.1mph 8°C 4°C
14/03/19 20:50 EGXW 142050Z 27010KT CAVOK 08/04 Q1004 BLU NOSIG W (270°) 11.5mph 8°C 4°C
14/03/19 19:50 EGXW 141950Z 28009KT 9999 SCT030 SCT050 BKN250 08/03 Q1004 BLU NOSIG W (280°) 10.4mph 8°C 3°C
14/03/19 18:50 EGXW 141850Z 27012KT CAVOK 08/03 Q1004 BLU NOSIG W (270°) 13.8mph 8°C 3°C
14/03/19 17:50 EGXW 141750Z 27015KT 9999 FEW038 BKN250 09/03 Q1003 BLU NOSIG W (270°) 17.3mph 9°C 3°C
14/03/19 16:50 EGXW 141650Z 28016KT 9999 FEW038 SCT250 10/02 Q1002 BLU NOSIG W (280°) 18.4mph 10°C 2°C
14/03/19 15:50 EGXW 141550Z 29020G33KT 9999 FEW038 11/02 Q1001 BLU NOSIG WNW (290°) 23.0mph 38.0mph 11°C 2°C
14/03/19 14:50 EGXW 141450Z 29020G31KT 9999 FEW042 11/02 Q1000 BLU NOSIG WNW (290°) 23.0mph 35.7mph 11°C 2°C
14/03/19 13:50 EGXW 141350Z 29023G36KT 9999 FEW042 11/01 Q0999 BLU NOSIG WNW (290°) 26.5mph 41.4mph 11°C 1°C
14/03/19 12:50 EGXW 141250Z 28022G37KT 9999 FEW033 11/03 Q0998 BLU NOSIG W (280°) 25.3mph 42.6mph 11°C 3°C
14/03/19 11:50 EGXW 141150Z 28021G32KT 9999 SCT031 10/04 Q0998 BLU TEMPO 29025G40KT BLU W (280°) 24.2mph 36.8mph 10°C 4°C
14/03/19 10:50 EGXW 141050Z 29022G34KT 9999 SCT034 11/04 Q0996 BLU TEMPO 29025G40KT BLU WNW (290°) 25.3mph 39.1mph 11°C 4°C
14/03/19 09:50 EGXW 140950Z 28021KT 9999 FEW030 10/05 Q0996 BLU NOSIG W (280°) 24.2mph 10°C 5°C
14/03/19 08:50 EGXW 140850Z 29019G30KT 9999 FEW013 SCT030 10/07 Q0995 BLU NOSIG WNW (290°) 21.9mph 34.5mph 10°C 7°C
14/03/19 08:18 EGXW 140818Z 26024KT 9999 SCT013 SCT022 BKN030 09/07 Q0994 GRN BECMG SCT025 BLU W (260°) 27.6mph 9°C 7°C
14/03/19 06:50 EGXW 140650Z 24019KT 9999 -RA SCT014 BKN020 BKN060 08/06 Q0994 GRN TEMPO FEW014 WHT -RA WSW (240°) 21.9mph 8°C 6°C
14/03/19 05:50 EGXW 140550Z 23018KT 9999 -RA FEW012 BKN015 BKN110 07/05 Q0996 WHT -RA SW (230°) 20.7mph 7°C 5°C
14/03/19 04:50 EGXW 140450Z 24019KT 9999 -RA SCT010 BKN017 07/05 Q0998 GRN -RA WSW (240°) 21.9mph 7°C 5°C
14/03/19 03:50 EGXW 140350Z 23018KT 9999 -RA SCT012 BKN020 07/05 Q0999 GRN -RA SW (230°) 20.7mph 7°C 5°C
14/03/19 02:50 EGXW 140250Z AUTO 23017G27KT 9999 FEW015/// BKN100/// 07/05 Q1002 SW (230°) 19.6mph 31.1mph 7°C 5°C
14/03/19 01:50 EGXW 140150Z AUTO 23016KT 9999 FEW016/// BKN070/// BKN130/// 07/04 Q1004 SW (230°) 18.4mph 7°C 4°C
14/03/19 00:50 EGXW 140050Z 24014KT 9999 FEW025 SCT070 BKN150 07/04 Q1005 BLU WSW (240°) 16.1mph 7°C 4°C
13/03/19 23:50 EGXW 132350Z 25013KT 9999 FEW018 BKN021 BKN110 07/04 Q1007 WHT WSW (250°) 15.0mph 7°C 4°C
13/03/19 22:50 EGXW 132250Z 26013KT 9999 FEW023 BKN025 07/04 Q1008 BLU W (260°) 15.0mph 7°C 4°C
13/03/19 21:50 EGXW 132150Z 26013KT 9999 -RA BKN027 07/03 Q1008 BLU TEMPO SCT022 WHT -RA W (260°) 15.0mph 7°C 3°C
13/03/19 20:50 EGXW 132050Z 26012KT 9999 SCT028 BKN080 BKN220 08/03 Q1008 BLU NOSIG W (260°) 13.8mph 8°C 3°C
13/03/19 19:50 EGXW 131950Z 27011KT CAVOK 07/02 Q1009 BLU NOSIG W (270°) 12.7mph 7°C 2°C
13/03/19 18:50 EGXW 131850Z 27014KT CAVOK 08/02 Q1008 BLU NOSIG W (270°) 16.1mph 8°C 2°C
13/03/19 17:50 EGXW 131750Z 29014KT 9999 FEW030 BKN250 08/03 Q1007 BLU NOSIG WNW (290°) 16.1mph 8°C 3°C
13/03/19 16:50 EGXW 131650Z 28020G31KT 9999 FEW030 BKN250 09/03 Q1007 BLU NOSIG W (280°) 23.0mph 35.7mph 9°C 3°C
13/03/19 15:50 EGXW 131550Z 29023G33KT 9999 FEW030 SCT050 10/03 Q1006 BLU NOSIG WNW (290°) 26.5mph 38.0mph 10°C 3°C
13/03/19 14:50 EGXW 131450Z 29024G37KT 9999 FEW030 10/03 Q1004 BLU NOSIG WNW (290°) 27.6mph 42.6mph 10°C 3°C
13/03/19 13:50 EGXW 131350Z 30022G34KT 9999 SCT028 10/04 Q1004 BLU NOSIG WNW (300°) 25.3mph 39.1mph 10°C 4°C
13/03/19 12:50 EGXW 131250Z 29024G39KT 9999 FEW029 10/04 Q1002 BLU NOSIG WNW (290°) 27.6mph 44.9mph 10°C 4°C
13/03/19 11:50 EGXW 131150Z 29025G38KT 9999 FEW028 10/04 Q1001 BLU NOSIG WNW (290°) 28.8mph 43.7mph 10°C 4°C
13/03/19 10:50 EGXW 131050Z 29025G35KT 9999 SCT028 SCT046 09/03 Q1000 BLU NOSIG WNW (290°) 28.8mph 40.3mph 9°C 3°C
13/03/19 09:50 EGXW 130950Z 28022KT 9999 BKN028 09/03 Q0999 BLU BECMG 28028G40KT BLU W (280°) 25.3mph 9°C 3°C
13/03/19 08:50 EGXW 130850Z 28019G35KT 9999 BKN029 08/03 Q0998 BLU NOSIG W (280°) 21.9mph 40.3mph 8°C 3°C
13/03/19 07:50 EGXW 130750Z 26017KT 9999 SCT032 SCT080 07/04 Q0997 BLU BECMG 27022G35KT W (260°) 19.6mph 7°C 4°C
13/03/19 07:27 EGXW 130727Z 26018G28KT 9999 FEW022 SCT027 07/04 Q0997 BLU TEMPO 6000 SHRA SCT022 WHT W (260°) 20.7mph 32.2mph 7°C 4°C
13/03/19 06:50 EGXW 130650Z 26020KT 6000 -SHRA SCT022 SCT027 BKN035 06/04 Q0996 WHT TEMPO 9999 NSW FEW022 BLU -SHRA W (260°) 23.0mph 6°C 4°C
13/03/19 05:50 EGXW 130550Z 26020G32KT 9999 -SHRA FEW018 BKN025 BKN250 07/04 Q0995 BLU -SHRA W (260°) 23.0mph 36.8mph 7°C 4°C
13/03/19 04:50 EGXW 130450Z 25017KT 9999 FEW015 BKN024 06/04 Q0994 WHT WSW (250°) 19.6mph 6°C 4°C